createdAt,value
2023-05-15T00:02:08.835Z,4.77
2023-05-15T00:04:55.548Z,4.20
2023-05-15T00:07:42.692Z,4.53
2023-05-15T00:10:28.969Z,4.47
2023-05-15T00:13:18.576Z,4.50
2023-05-15T00:16:07.788Z,4.27
2023-05-15T00:18:54.372Z,4.07
2023-05-15T00:21:40.523Z,3.63
2023-05-15T00:24:26.750Z,3.43
2023-05-15T00:27:12.911Z,4.00
2023-05-15T00:29:59.428Z,4.10
2023-05-15T00:32:45.706Z,4.30
2023-05-15T00:35:32.667Z,4.13
2023-05-15T00:38:18.973Z,4.20
2023-05-15T00:41:07.539Z,4.27
2023-05-15T00:43:55.817Z,4.63
2023-05-15T00:46:45.450Z,3.93
2023-05-15T00:49:35.309Z,5.03
2023-05-15T00:52:22.775Z,4.23
2023-05-15T00:55:09.561Z,4.60
2023-05-15T00:57:57.631Z,4.13
2023-05-15T01:00:47.188Z,4.57
2023-05-15T01:03:33.594Z,4.73
2023-05-15T01:06:20.104Z,4.43
2023-05-15T01:09:08.320Z,5.00
2023-05-15T01:11:57.366Z,5.20
2023-05-15T01:14:43.742Z,5.93
2023-05-15T01:17:31.096Z,4.40
2023-05-15T01:20:18.782Z,5.00
2023-05-15T01:23:43.712Z,4.43
2023-05-15T01:27:27.337Z,4.33
2023-05-15T01:30:28.820Z,4.27
2023-05-15T01:33:26.651Z,4.63
2023-05-15T01:36:24.611Z,4.37
2023-05-15T01:39:11.498Z,4.27
2023-05-15T01:42:03.959Z,3.97
2023-05-15T01:44:54.691Z,4.07
2023-05-15T01:47:46.339Z,4.00
2023-05-15T01:50:34.791Z,4.00
2023-05-15T01:53:21.220Z,4.63
2023-05-15T01:56:09.896Z,4.40
2023-05-15T01:58:57.233Z,4.00
2023-05-15T02:01:45.899Z,6.07
2023-05-15T02:04:33.976Z,4.93
2023-05-15T02:07:20.878Z,4.17
2023-05-15T02:10:09.287Z,4.27
2023-05-15T02:12:56.510Z,3.90
2023-05-15T02:15:43.459Z,5.23
2023-05-15T02:18:30.202Z,3.83
2023-05-15T02:21:17.452Z,3.90
2023-05-15T02:24:04.089Z,3.40
2023-05-15T02:26:56.531Z,3.90
2023-05-15T02:30:01.628Z,3.97
2023-05-15T02:33:18.515Z,3.97
2023-05-15T02:36:11.334Z,3.90
2023-05-15T02:38:59.361Z,3.93
2023-05-15T02:41:46.985Z,4.10
2023-05-15T02:44:37.177Z,4.03
2023-05-15T02:47:24.278Z,3.73
2023-05-15T02:50:10.909Z,4.00
2023-05-15T02:53:04.791Z,4.57
2023-05-15T02:55:51.179Z,3.63
2023-05-15T02:58:38.610Z,4.00
2023-05-15T03:01:24.829Z,4.57
2023-05-15T03:04:11.036Z,3.67
2023-05-15T03:06:57.511Z,3.77
2023-05-15T03:09:43.962Z,3.77
2023-05-15T03:12:30.293Z,3.87
2023-05-15T03:15:16.771Z,3.83
2023-05-15T03:18:03.115Z,3.80
2023-05-15T03:20:52.527Z,4.40
2023-05-15T03:23:38.880Z,4.17
2023-05-15T03:26:25.642Z,4.17
2023-05-15T03:29:13.256Z,4.07
2023-05-15T03:31:59.713Z,4.43
2023-05-15T03:34:46.164Z,3.60
2023-05-15T03:37:32.892Z,4.43
2023-05-15T03:40:19.051Z,3.83
2023-05-15T03:43:06.516Z,4.20
2023-05-15T03:45:52.993Z,3.63
2023-05-15T03:48:39.221Z,3.80
2023-05-15T03:51:25.692Z,4.50
2023-05-15T03:54:13.474Z,4.23
2023-05-15T03:57:00.888Z,3.63
2023-05-15T03:59:47.351Z,4.43
2023-05-15T04:02:33.733Z,4.27
2023-05-15T04:05:21.766Z,4.17
2023-05-15T04:08:10.057Z,4.03
2023-05-15T04:10:56.373Z,4.60
2023-05-15T04:13:42.546Z,4.27
2023-05-15T04:16:29.098Z,4.10
2023-05-15T04:19:15.713Z,3.47
2023-05-15T04:22:01.974Z,4.13
2023-05-15T04:24:48.405Z,3.97
2023-05-15T04:27:36.380Z,4.00
2023-05-15T04:30:22.861Z,4.07
2023-05-15T04:33:09.121Z,4.33
2023-05-15T04:35:55.432Z,4.50
2023-05-15T04:38:42.192Z,4.03
2023-05-15T04:41:28.812Z,4.00
2023-05-15T04:44:15.118Z,3.80
2023-05-15T04:47:01.382Z,4.53
2023-05-15T04:49:50.551Z,6.90
2023-05-15T04:52:37.237Z,6.87
2023-05-15T04:55:23.821Z,9.93
2023-05-15T04:58:10.625Z,9.13
2023-05-15T05:00:56.768Z,6.50
2023-05-15T05:03:43.259Z,12.50
2023-05-15T05:06:30.541Z,8.87
2023-05-15T05:09:19.219Z,10.57
2023-05-15T05:12:07.397Z,8.00
2023-05-15T05:14:53.471Z,6.87
2023-05-15T05:17:39.718Z,5.20
2023-05-15T05:20:26.427Z,4.63
2023-05-15T05:23:14.761Z,3.40
2023-05-15T05:26:01.060Z,3.43
2023-05-15T05:28:47.861Z,3.70
2023-05-15T05:31:34.080Z,3.30
2023-05-15T05:34:20.577Z,3.63
2023-05-15T05:37:06.748Z,4.27
2023-05-15T05:39:54.744Z,4.80
2023-05-15T05:42:41.259Z,3.87
2023-05-15T05:45:28.137Z,3.93
2023-05-15T05:48:14.515Z,4.10
2023-05-15T05:51:00.815Z,3.90
2023-05-15T05:53:46.973Z,2.93
2023-05-15T05:56:33.317Z,3.83
2023-05-15T05:59:19.612Z,3.87
2023-05-15T06:02:06.241Z,4.03
2023-05-15T06:04:53.295Z,3.37
2023-05-15T06:07:40.065Z,3.50
2023-05-15T06:10:27.103Z,3.30
2023-05-15T06:13:14.838Z,3.57
2023-05-15T06:16:01.437Z,4.00
2023-05-15T06:18:48.014Z,3.70
2023-05-15T06:21:34.260Z,3.30
2023-05-15T06:24:20.607Z,3.57
2023-05-15T06:27:07.164Z,3.23
2023-05-15T06:29:53.648Z,4.07
2023-05-15T06:32:41.759Z,3.73
2023-05-15T06:35:28.435Z,3.57
2023-05-15T06:38:14.656Z,3.27
2023-05-15T06:41:09.757Z,3.30
2023-05-15T06:43:56.163Z,2.90
2023-05-15T06:46:42.578Z,3.20
2023-05-15T06:49:28.715Z,3.40
2023-05-15T06:52:15.297Z,3.63
2023-05-15T06:55:01.784Z,3.23
2023-05-15T06:57:48.141Z,3.00
2023-05-15T07:00:34.591Z,2.90
2023-05-15T07:03:21.393Z,3.20
2023-05-15T07:06:07.627Z,2.80
2023-05-15T07:08:54.000Z,2.80
2023-05-15T07:11:42.095Z,2.63
2023-05-15T07:14:28.598Z,2.40
2023-05-15T07:17:14.849Z,2.77
2023-05-15T07:20:01.793Z,2.80
2023-05-15T07:22:56.505Z,2.87
2023-05-15T07:25:44.690Z,2.73
2023-05-15T07:28:32.404Z,2.60
2023-05-15T07:31:20.532Z,2.47
2023-05-15T07:34:07.002Z,2.33
2023-05-15T07:36:53.186Z,2.53
2023-05-15T07:39:39.610Z,2.90
2023-05-15T07:42:26.125Z,3.03
2023-05-15T07:45:12.243Z,2.70
2023-05-15T07:47:59.090Z,2.90
2023-05-15T07:50:46.830Z,2.37
2023-05-15T07:53:33.270Z,2.70
2023-05-15T07:56:19.414Z,2.27
2023-05-15T07:59:06.788Z,2.30
2023-05-15T08:01:53.206Z,2.77
2023-05-15T08:04:39.974Z,2.63
2023-05-15T08:07:26.670Z,4.50
2023-05-15T08:10:12.882Z,2.77
2023-05-15T08:12:59.131Z,2.50
2023-05-15T08:15:45.438Z,2.20
2023-05-15T08:18:31.870Z,2.80
2023-05-15T08:21:18.669Z,3.73
2023-05-15T08:24:05.506Z,2.77
2023-05-15T08:26:51.979Z,2.87
2023-05-15T08:29:39.756Z,2.77
2023-05-15T08:32:27.239Z,2.70
2023-05-15T08:35:13.586Z,2.50
2023-05-15T08:37:59.903Z,2.70
2023-05-15T08:40:47.309Z,1.80
2023-05-15T08:43:36.630Z,2.20
2023-05-15T08:46:23.647Z,2.90
2023-05-15T08:49:26.755Z,2.30
2023-05-15T08:52:13.379Z,2.80
2023-05-15T08:55:00.956Z,2.20
2023-05-15T08:57:48.901Z,2.20
2023-05-15T09:00:36.032Z,2.33
2023-05-15T09:03:23.408Z,2.47
2023-05-15T09:06:10.512Z,2.60
2023-05-15T09:08:58.211Z,2.57
2023-05-15T09:11:45.549Z,2.20
2023-05-15T09:14:31.800Z,2.30
2023-05-15T09:17:18.056Z,2.83
2023-05-15T09:20:08.519Z,2.57
2023-05-15T09:22:56.020Z,3.30
2023-05-15T09:25:47.049Z,2.97
2023-05-15T09:28:33.875Z,2.83
2023-05-15T09:31:21.816Z,2.90
2023-05-15T09:34:10.098Z,2.63
2023-05-15T09:36:56.696Z,2.80
2023-05-15T09:39:44.269Z,2.97
2023-05-15T09:42:34.841Z,3.13
2023-05-15T09:45:21.356Z,2.70
2023-05-15T09:48:08.676Z,2.73
2023-05-15T09:50:56.889Z,2.80
2023-05-15T09:53:48.097Z,3.13
2023-05-15T09:56:34.503Z,2.37
2023-05-15T09:59:24.391Z,2.50
2023-05-15T10:02:14.708Z,2.10
2023-05-15T10:05:01.325Z,2.47
2023-05-15T10:07:54.505Z,2.50
2023-05-15T10:10:41.996Z,2.63
2023-05-15T10:13:31.831Z,2.37
2023-05-15T10:16:21.349Z,2.27
2023-05-15T10:19:10.133Z,2.40
2023-05-15T10:21:59.744Z,2.50
2023-05-15T10:24:48.783Z,2.70
2023-05-15T10:27:37.428Z,2.30
2023-05-15T10:30:25.041Z,2.23
2023-05-15T10:33:13.331Z,2.30
2023-05-15T10:36:00.327Z,1.90
2023-05-15T10:38:48.191Z,2.10
2023-05-15T10:41:39.553Z,2.20
2023-05-15T10:44:25.780Z,2.07
2023-05-15T10:47:12.279Z,2.37
2023-05-15T10:49:59.434Z,1.97
2023-05-15T10:52:46.165Z,2.40
2023-05-15T10:55:33.136Z,2.40
2023-05-15T10:58:23.933Z,1.87
2023-05-15T11:01:28.339Z,2.30
2023-05-15T11:04:17.161Z,2.43
2023-05-15T11:07:15.557Z,2.00
2023-05-15T11:10:28.028Z,2.77
2023-05-15T11:13:14.488Z,2.40
2023-05-15T11:16:00.909Z,2.30
2023-05-15T11:18:47.233Z,2.57
2023-05-15T11:21:33.495Z,2.40
2023-05-15T11:24:19.790Z,2.60
2023-05-15T11:27:06.073Z,2.60
2023-05-15T11:30:08.004Z,2.40
2023-05-15T11:33:10.160Z,2.53
2023-05-15T11:36:00.681Z,2.73
2023-05-15T11:38:50.880Z,2.43
2023-05-15T11:41:37.655Z,2.37
2023-05-15T11:44:24.565Z,2.83
2023-05-15T11:47:11.507Z,2.70
2023-05-15T11:49:58.278Z,2.60
2023-05-15T11:52:45.160Z,2.40
2023-05-15T11:55:33.285Z,2.53
2023-05-15T11:58:21.688Z,2.30
2023-05-15T12:01:11.831Z,2.40
2023-05-15T12:03:58.225Z,2.20
2023-05-15T12:06:47.412Z,2.17
2023-05-15T12:09:34.138Z,2.37
2023-05-15T12:12:20.775Z,2.33
2023-05-15T12:15:15.418Z,2.33
2023-05-15T12:18:04.094Z,2.50
2023-05-15T12:20:53.109Z,2.67
2023-05-15T12:23:39.828Z,2.30
2023-05-15T12:26:28.161Z,2.23
2023-05-15T12:29:15.531Z,2.23
2023-05-15T12:32:02.122Z,2.30
2023-05-15T12:34:49.128Z,2.30
2023-05-15T12:37:36.350Z,2.20
2023-05-15T12:40:23.451Z,2.33
2023-05-15T12:43:10.844Z,2.30
2023-05-15T12:45:58.315Z,2.40
2023-05-15T12:48:44.885Z,1.80
2023-05-15T12:51:32.130Z,2.20
2023-05-15T12:54:20.128Z,2.10
2023-05-15T12:57:06.474Z,2.27
2023-05-15T12:59:52.844Z,2.00
2023-05-15T13:02:39.324Z,2.07
2023-05-15T13:05:27.108Z,2.07
2023-05-15T13:08:18.175Z,2.00
2023-05-15T13:11:04.528Z,1.93
2023-05-15T13:13:50.744Z,1.97
2023-05-15T13:16:36.940Z,2.20
2023-05-15T13:19:23.519Z,2.57
2023-05-15T13:22:09.713Z,2.20
2023-05-15T13:24:56.831Z,2.33
2023-05-15T13:27:43.489Z,2.00
2023-05-15T13:30:30.693Z,2.40
2023-05-15T13:33:17.036Z,2.83
2023-05-15T13:36:03.744Z,2.80
2023-05-15T13:38:49.933Z,2.77
2023-05-15T13:41:36.729Z,2.30
2023-05-15T13:44:23.072Z,2.10
2023-05-15T13:47:09.308Z,2.30
2023-05-15T13:49:55.756Z,2.10
2023-05-15T13:52:43.298Z,1.97
2023-05-15T13:55:29.783Z,1.80
2023-05-15T13:58:16.618Z,2.00
2023-05-15T14:01:06.635Z,2.00
2023-05-15T14:03:54.029Z,2.10
2023-05-15T14:06:40.756Z,1.60
2023-05-15T14:09:28.205Z,1.77
2023-05-15T14:12:14.787Z,2.00
2023-05-15T14:15:01.179Z,2.13
2023-05-15T14:17:48.677Z,2.17
2023-05-15T14:20:35.428Z,2.60
2023-05-15T14:23:21.624Z,2.80
2023-05-15T14:26:08.195Z,3.00
2023-05-15T14:28:55.495Z,3.40
2023-05-15T14:31:43.125Z,2.90
2023-05-15T14:34:30.406Z,2.90
2023-05-15T14:37:18.025Z,3.40
2023-05-15T14:40:05.030Z,3.40
2023-05-15T14:42:51.662Z,3.70
2023-05-15T14:45:38.207Z,3.90
2023-05-15T14:48:24.739Z,3.90
2023-05-15T14:51:11.341Z,3.50
2023-05-15T14:53:57.892Z,3.07
2023-05-15T14:56:44.469Z,2.90
2023-05-15T14:59:30.857Z,2.90
2023-05-15T15:02:17.476Z,2.70
2023-05-15T15:05:04.521Z,2.83
2023-05-15T15:08:00.687Z,2.90
2023-05-15T15:10:46.948Z,2.20
2023-05-15T15:13:33.037Z,2.83
2023-05-15T15:16:19.260Z,3.60
2023-05-15T15:19:05.956Z,4.17
2023-05-15T15:21:53.786Z,4.33
2023-05-15T15:24:40.367Z,3.83
2023-05-15T15:27:27.505Z,3.90
2023-05-15T15:30:14.600Z,3.80
2023-05-15T15:33:01.227Z,3.80
2023-05-15T15:35:47.397Z,3.40
2023-05-15T15:38:33.945Z,4.40
2023-05-15T15:41:21.375Z,4.40
2023-05-15T15:44:08.096Z,4.90
2023-05-15T15:46:54.237Z,4.77
2023-05-15T15:49:41.591Z,4.60
2023-05-15T15:52:28.069Z,4.30
2023-05-15T15:55:14.596Z,4.57
2023-05-15T15:58:00.694Z,4.10
2023-05-15T16:00:47.244Z,3.30
2023-05-15T16:03:33.630Z,3.10
2023-05-15T16:06:20.325Z,3.70
2023-05-15T16:09:07.221Z,3.03
2023-05-15T16:11:53.884Z,3.43
2023-05-15T16:14:40.640Z,4.10
2023-05-15T16:17:26.851Z,3.10
2023-05-15T16:20:13.192Z,3.60
2023-05-15T16:22:59.484Z,4.23
2023-05-15T16:25:45.926Z,3.60
2023-05-15T16:28:32.337Z,3.50
2023-05-15T16:31:18.858Z,3.40
2023-05-15T16:34:05.590Z,3.20
2023-05-15T16:36:51.993Z,2.73
2023-05-15T16:39:41.254Z,2.93
2023-05-15T16:42:28.453Z,3.80
2023-05-15T16:45:14.717Z,3.50
2023-05-15T16:48:01.170Z,2.83
2023-05-15T16:50:47.704Z,3.73
2023-05-15T16:53:34.335Z,4.10
2023-05-15T16:56:20.830Z,4.57
2023-05-15T16:59:07.400Z,4.40
2023-05-15T17:01:53.644Z,3.60
2023-05-15T17:04:39.945Z,3.90
2023-05-15T17:07:26.253Z,3.43
2023-05-15T17:10:13.238Z,3.43
2023-05-15T17:12:59.709Z,3.40
2023-05-15T17:15:47.139Z,3.53
2023-05-15T17:18:33.431Z,3.97
2023-05-15T17:21:19.816Z,3.57
2023-05-15T17:24:06.166Z,5.90
2023-05-15T17:26:52.821Z,4.73
2023-05-15T17:29:39.222Z,4.17
2023-05-15T17:32:25.588Z,3.83
2023-05-15T17:35:12.013Z,3.87
2023-05-15T17:37:58.202Z,4.70
2023-05-15T17:40:44.645Z,4.43
2023-05-15T17:43:30.974Z,4.77
2023-05-15T17:46:17.521Z,4.00
2023-05-15T17:49:04.085Z,3.67
2023-05-15T17:51:50.979Z,3.97
2023-05-15T17:54:37.570Z,3.90
2023-05-15T17:57:23.759Z,4.10
2023-05-15T18:00:10.935Z,3.50
2023-05-15T18:03:01.191Z,3.70
2023-05-15T18:05:47.772Z,4.20
2023-05-15T18:08:34.040Z,3.63
2023-05-15T18:11:22.371Z,3.80
2023-05-15T18:14:09.516Z,3.60
2023-05-15T18:16:56.172Z,4.10
2023-05-15T18:19:44.749Z,3.83
2023-05-15T18:22:31.415Z,4.13
2023-05-15T18:25:18.280Z,4.00
2023-05-15T18:28:04.704Z,3.80
2023-05-15T18:30:51.157Z,4.13
2023-05-15T18:33:38.161Z,4.33
2023-05-15T18:36:24.321Z,4.30
2023-05-15T18:39:10.977Z,4.53
2023-05-15T18:41:57.072Z,4.30
2023-05-15T18:44:46.775Z,5.30
2023-05-15T18:47:33.511Z,4.67
2023-05-15T18:50:20.710Z,4.70
2023-05-15T18:53:07.175Z,4.10
2023-05-15T18:55:53.506Z,4.87
2023-05-15T18:58:39.758Z,4.70
2023-05-15T19:01:26.021Z,4.67
2023-05-15T19:04:12.672Z,5.30
2023-05-15T19:06:58.956Z,4.43
2023-05-15T19:09:45.424Z,4.40
2023-05-15T19:12:31.662Z,5.10
2023-05-15T19:15:19.096Z,4.87
2023-05-15T19:18:06.005Z,4.80
2023-05-15T19:20:54.130Z,4.57
2023-05-15T19:23:40.497Z,5.23
2023-05-15T19:26:28.486Z,5.27
2023-05-15T19:29:14.828Z,4.97
2023-05-15T19:32:02.925Z,5.17
2023-05-15T19:34:49.955Z,5.57
2023-05-15T19:37:36.409Z,5.47
2023-05-15T19:40:22.866Z,5.10
2023-05-15T19:43:11.314Z,5.40
2023-05-15T19:45:58.024Z,5.30
2023-05-15T19:48:45.023Z,5.83
2023-05-15T19:51:31.604Z,5.40
2023-05-15T19:54:18.008Z,5.83
2023-05-15T19:57:04.712Z,5.30
2023-05-15T19:59:51.569Z,5.80
2023-05-15T20:02:37.900Z,6.63
2023-05-15T20:05:24.531Z,6.23
2023-05-15T20:08:11.137Z,6.33
2023-05-15T20:10:57.894Z,5.83
2023-05-15T20:13:44.160Z,5.90
2023-05-15T20:16:30.555Z,5.80
2023-05-15T20:19:17.035Z,5.80
2023-05-15T20:22:03.962Z,6.67
2023-05-15T20:24:50.370Z,5.97
2023-05-15T20:27:37.154Z,6.17
2023-05-15T20:30:24.236Z,6.73
2023-05-15T20:33:11.502Z,6.40
2023-05-15T20:35:58.220Z,7.53
2023-05-15T20:38:44.973Z,6.50
2023-05-15T20:41:31.648Z,6.50
2023-05-15T20:44:17.817Z,5.83
2023-05-15T20:47:04.983Z,6.80
2023-05-15T20:49:51.500Z,6.40
2023-05-15T20:52:38.092Z,6.67
2023-05-15T20:55:24.622Z,6.60
2023-05-15T20:58:11.115Z,6.10
2023-05-15T21:01:00.704Z,5.80
2023-05-15T21:03:47.044Z,6.50
2023-05-15T21:06:33.674Z,6.63
2023-05-15T21:09:19.953Z,7.17
2023-05-15T21:12:06.626Z,6.77
2023-05-15T21:14:53.443Z,6.50
2023-05-15T21:17:40.262Z,6.13
2023-05-15T21:20:27.106Z,6.50
2023-05-15T21:23:14.033Z,6.43
2023-05-15T21:26:00.577Z,6.53
2023-05-15T21:28:46.782Z,6.47
2023-05-15T21:31:33.195Z,6.10
2023-05-15T21:34:20.224Z,6.87
2023-05-15T21:37:06.854Z,6.00
2023-05-15T21:39:53.410Z,6.10
2023-05-15T21:42:39.702Z,6.70
2023-05-15T21:45:25.884Z,7.57
2023-05-15T21:48:12.624Z,6.90
2023-05-15T21:50:58.848Z,8.10
2023-05-15T21:53:45.618Z,8.03
2023-05-15T21:56:32.205Z,8.37
2023-05-15T21:59:18.467Z,8.07
2023-05-15T22:02:05.119Z,7.97
2023-05-15T22:04:51.901Z,8.27
2023-05-15T22:07:38.289Z,9.20
2023-05-15T22:10:24.935Z,8.87
2023-05-15T22:13:11.637Z,8.40
2023-05-15T22:15:57.921Z,8.37
2023-05-15T22:18:45.188Z,9.23
2023-05-15T22:21:32.707Z,8.63
2023-05-15T22:24:19.088Z,9.23
2023-05-15T22:27:05.500Z,8.73
2023-05-15T22:29:51.884Z,8.03
2023-05-15T22:32:38.375Z,9.23
2023-05-15T22:35:24.895Z,8.90
2023-05-15T22:38:11.291Z,8.50
2023-05-15T22:40:57.721Z,9.00
2023-05-15T22:43:44.246Z,8.93
2023-05-15T22:46:30.857Z,9.07
2023-05-15T22:49:23.364Z,8.30
2023-05-15T22:52:11.606Z,7.77
2023-05-15T22:54:59.488Z,8.90
2023-05-15T22:57:45.877Z,8.10
2023-05-15T23:00:33.238Z,9.13
2023-05-15T23:03:19.499Z,10.30
2023-05-15T23:06:06.271Z,7.43
2023-05-15T23:08:52.798Z,8.53
2023-05-15T23:11:39.174Z,8.53
2023-05-15T23:14:25.821Z,8.47
2023-05-15T23:17:12.573Z,8.80
2023-05-15T23:19:59.058Z,9.17
2023-05-15T23:22:45.282Z,8.73
2023-05-15T23:25:31.658Z,8.83
2023-05-15T23:28:18.278Z,9.57
2023-05-15T23:31:04.708Z,8.60
2023-05-15T23:33:51.640Z,9.60
2023-05-15T23:36:37.727Z,9.00
2023-05-15T23:39:23.923Z,9.90
2023-05-15T23:42:12.255Z,9.77
2023-05-15T23:44:58.706Z,9.70
2023-05-15T23:47:46.580Z,10.47
2023-05-15T23:50:33.075Z,10.17
2023-05-15T23:53:19.206Z,10.10
2023-05-15T23:56:06.348Z,10.23
2023-05-15T23:58:52.905Z,10.27
